Time;durP1;ratioP1;P1;durP2;ratioP2;P2;SDS_P1;SDS_P2;PMS_P1;PMS_P2;Temp;Humidity;BMP_temperature;BMP_pressure;BME280_temperature;BME280_humidity;BME280_pressure;Samples;Min_cycle;Max_cycle;Signal;HPM_P1;HPM_P2
2021/09/12 00:00:21;;;;;;;5.38;3.70;;;;;;;14.28;100.00;99034.16;5066579;28;20953;-69
2021/09/12 00:02:47;;;;;;;6.35;4.20;;;;;;;14.26;100.00;99036.25;5050094;28;20028;-69
2021/09/12 00:05:12;;;;;;;5.63;3.83;;;;;;;14.26;100.00;99033.53;5071367;28;20056;-69
2021/09/12 00:07:38;;;;;;;5.03;3.83;;;;;;;14.12;100.00;99016.50;5072012;28;20021;-72
2021/09/12 00:10:05;;;;;;;4.90;3.55;;;;;;;14.13;100.00;99026.31;5071938;28;20105;-70
2021/09/12 00:12:30;;;;;;;5.85;3.45;;;;;;;14.01;100.00;99025.34;5071528;28;20025;-69
2021/09/12 00:14:55;;;;;;;4.60;3.67;;;;;;;14.09;100.00;99021.53;5070511;28;20028;-70
2021/09/12 00:17:20;;;;;;;7.07;4.45;;;;;;;14.11;100.00;99022.97;5070878;28;20456;-70
2021/09/12 00:19:46;;;;;;;6.03;3.58;;;;;;;14.10;100.00;99018.59;5071810;28;20039;-70
2021/09/12 00:22:11;;;;;;;7.40;3.58;;;;;;;14.10;100.00;99032.19;5054590;28;20028;-70
2021/09/12 00:24:36;;;;;;;4.32;3.35;;;;;;;13.97;100.00;99024.97;5070803;28;20051;-70
2021/09/12 00:27:02;;;;;;;5.80;3.75;;;;;;;13.97;100.00;99026.84;5070828;28;20032;-70
2021/09/12 00:29:27;;;;;;;6.93;3.70;;;;;;;13.87;100.00;99030.06;5071589;28;20024;-70
2021/09/12 00:31:53;;;;;;;5.68;3.72;;;;;;;13.82;100.00;99030.69;5070568;28;20032;-69
2021/09/12 00:34:18;;;;;;;11.25;3.97;;;;;;;13.77;100.00;99019.66;5073834;28;20035;-70
2021/09/12 00:36:44;;;;;;;4.80;3.75;;;;;;;13.86;100.00;99025.69;5075126;28;20033;-70
2021/09/12 00:39:09;;;;;;;5.70;3.40;;;;;;;13.73;100.00;99026.59;5075716;28;20074;-70
2021/09/12 00:41:42;;;;;;;4.93;3.45;;;;;;;13.59;100.00;99011.38;5075782;28;20586;-70
2021/09/12 00:44:12;;;;;;;4.75;3.20;;;;;;;13.54;100.00;99024.81;5073044;28;20028;-69
2021/09/12 00:46:46;;;;;;;6.35;4.18;;;;;;;13.56;100.00;99018.09;5075176;28;20394;-69
2021/09/12 00:49:12;;;;;;;5.85;4.35;;;;;;;13.63;100.00;99023.50;5074328;28;20028;-69
2021/09/12 00:51:38;;;;;;;7.05;4.35;;;;;;;13.56;100.00;99017.28;5075058;28;20024;-69
2021/09/12 00:54:05;;;;;;;9.20;3.88;;;;;;;13.54;100.00;99024.81;5073624;28;20501;-69
2021/09/12 00:56:32;;;;;;;6.00;4.47;;;;;;;13.50;100.00;99026.31;5074605;28;20383;-70
2021/09/12 00:58:59;;;;;;;10.05;4.90;;;;;;;13.52;100.00;99019.59;5073994;28;20482;-69
2021/09/12 01:01:27;;;;;;;6.35;5.00;;;;;;;13.49;100.00;99022.75;5074627;28;20155;-69
2021/09/12 01:03:53;;;;;;;8.27;5.30;;;;;;;13.46;100.00;99019.63;5072866;28;20024;-69
2021/09/12 01:06:19;;;;;;;7.38;4.65;;;;;;;13.41;100.00;99019.44;5074122;28;20390;-69
2021/09/12 01:08:44;;;;;;;7.65;4.85;;;;;;;13.30;100.00;99021.78;5075200;28;20031;-69
2021/09/12 01:11:10;;;;;;;9.77;5.03;;;;;;;13.34;100.00;99025.75;5074550;28;20397;-69
2021/09/12 01:13:43;;;;;;;6.00;4.55;;;;;;;13.27;100.00;99027.66;5073205;28;20119;-70
2021/09/12 01:16:19;;;;;;;8.90;3.88;;;;;;;13.29;100.00;99016.56;5066481;28;20032;-69
2021/09/12 01:18:46;;;;;;;5.95;3.58;;;;;;;13.22;100.00;99021.16;5067154;28;20020;-69
2021/09/12 01:21:17;;;;;;;3.88;2.60;;;;;;;13.17;100.00;99021.78;5074373;28;20032;-69
2021/09/12 01:23:43;;;;;;;2.75;2.42;;;;;;;13.03;100.00;99025.63;5073976;28;20552;-69
2021/09/12 01:26:09;;;;;;;2.72;2.22;;;;;;;12.85;100.00;98999.97;5074523;28;20146;-69
2021/09/12 01:28:39;;;;;;;3.45;1.80;;;;;;;12.78;100.00;99001.84;5074673;28;20052;-69
2021/09/12 01:31:04;;;;;;;2.90;2.38;;;;;;;12.76;100.00;99005.84;5073615;28;20066;-69
2021/09/12 01:33:30;;;;;;;2.63;2.22;;;;;;;12.78;100.00;99025.47;5068647;28;20522;-69
2021/09/12 01:35:55;;;;;;;5.65;2.88;;;;;;;12.76;100.00;99017.56;5074012;28;20536;-69
2021/09/12 01:38:20;;;;;;;4.90;3.67;;;;;;;12.84;100.00;99019.22;5074064;28;20023;-70
2021/09/12 01:40:46;;;;;;;4.25;3.50;;;;;;;12.81;100.00;99020.47;5074217;28;20025;-69
2021/09/12 01:43:11;;;;;;;4.63;3.58;;;;;;;12.75;100.00;99021.28;5054064;28;20620;-70
2021/09/12 01:45:36;;;;;;;5.22;3.08;;;;;;;12.72;100.00;99024.44;5072008;28;20052;-69
2021/09/12 01:48:02;;;;;;;3.15;2.70;;;;;;;12.70;100.00;99029.25;5072880;28;20032;-69
2021/09/12 01:50:28;;;;;;;3.60;2.92;;;;;;;12.76;100.00;99022.97;5071523;28;20409;-70
2021/09/12 01:52:54;;;;;;;4.00;2.63;;;;;;;12.68;100.00;99023.19;5073936;28;20051;-69
2021/09/12 01:55:20;;;;;;;12.82;3.42;;;;;;;12.62;100.00;99016.72;5072997;28;20506;-69
2021/09/12 01:57:45;;;;;;;9.68;3.53;;;;;;;12.69;100.00;99017.56;5073741;28;20032;-69
2021/09/12 02:00:11;;;;;;;11.68;5.13;;;;;;;12.74;100.00;99025.06;5073841;28;20107;-69
2021/09/12 02:02:36;;;;;;;6.13;4.07;;;;;;;12.64;100.00;99030.91;5072513;28;20029;-69
2021/09/12 02:05:03;;;;;;;7.40;5.13;;;;;;;12.59;100.00;99019.03;5071784;28;20035;-69
2021/09/12 02:07:29;;;;;;;10.52;4.82;;;;;;;12.83;100.00;99031.91;5073015;28;20114;-70
2021/09/12 02:09:54;;;;;;;9.27;4.78;;;;;;;12.78;100.00;99020.88;5072825;28;20103;-69
2021/09/12 02:12:19;;;;;;;9.82;5.65;;;;;;;12.84;100.00;99020.03;5073759;28;20048;-69
2021/09/12 02:14:45;;;;;;;8.57;5.70;;;;;;;12.98;100.00;99025.44;5071169;28;20107;-69
2021/09/12 02:17:10;;;;;;;10.75;4.95;;;;;;;12.94;100.00;99025.00;5073231;28;20024;-69
2021/09/12 02:19:35;;;;;;;7.68;4.60;;;;;;;12.95;100.00;99015.81;5073067;28;20028;-69
2021/09/12 02:22:01;;;;;;;10.00;4.05;;;;;;;12.95;100.00;99010.41;5072060;28;20032;-69
2021/09/12 02:24:26;;;;;;;10.93;4.63;;;;;;;12.76;100.00;99000.41;5072159;28;20052;-69
2021/09/12 02:26:51;;;;;;;8.90;5.25;;;;;;;12.80;100.00;99007.91;5053687;28;20020;-70
2021/09/12 02:29:17;;;;;;;15.00;5.70;;;;;;;12.60;100.00;99012.53;5070604;28;20040;-69
2021/09/12 02:31:42;;;;;;;12.13;5.47;;;;;;;12.44;100.00;98998.41;5073255;28;20482;-70
2021/09/12 02:34:07;;;;;;;9.40;5.25;;;;;;;12.28;100.00;98996.09;5072195;28;20028;-69
2021/09/12 02:36:33;;;;;;;8.88;5.75;;;;;;;12.31;100.00;99000.25;5071938;28;20032;-69
2021/09/12 02:38:58;;;;;;;7.50;4.95;;;;;;;12.27;100.00;99002.56;5054660;28;20039;-70
2021/09/12 02:41:24;;;;;;;7.88;4.75;;;;;;;12.28;100.00;99005.06;5072934;28;20028;-70
2021/09/12 02:43:49;;;;;;;8.38;4.55;;;;;;;12.14;100.00;99014.25;5071755;28;20442;-69
2021/09/12 02:46:14;;;;;;;7.95;4.38;;;;;;;12.06;100.00;99011.75;5073276;28;20107;-69
2021/09/12 02:48:39;;;;;;;6.90;5.07;;;;;;;12.02;100.00;99005.06;5054848;28;20027;-69
2021/09/12 02:51:05;;;;;;;8.93;4.80;;;;;;;12.00;100.00;99008.00;5061076;28;20108;-70
2021/09/12 02:53:30;;;;;;;8.68;5.18;;;;;;;11.95;100.00;99017.81;5054654;28;20043;-69
2021/09/12 02:55:56;;;;;;;8.93;5.47;;;;;;;11.87;100.00;99007.13;5072500;28;20020;-69
2021/09/12 02:58:21;;;;;;;7.35;5.15;;;;;;;12.00;100.00;99013.44;5090095;28;20028;-69
2021/09/12 03:00:46;;;;;;;7.72;4.72;;;;;;;11.97;100.00;99016.56;5088820;28;20092;-69
2021/09/12 03:03:12;;;;;;;6.50;4.00;;;;;;;11.92;100.00;99010.91;5074123;28;20027;-69
2021/09/12 03:05:37;;;;;;;5.35;4.03;;;;;;;11.89;100.00;99016.72;5089872;28;20040;-70
2021/09/12 03:08:02;;;;;;;5.05;3.53;;;;;;;11.82;100.00;99019.41;5090219;28;20517;-70
2021/09/12 03:10:28;;;;;;;6.60;4.10;;;;;;;11.83;100.00;99014.81;5089183;28;20039;-69
2021/09/12 03:12:53;;;;;;;6.00;4.53;;;;;;;11.84;100.00;99005.63;5084835;28;20538;-69
2021/09/12 03:15:18;;;;;;;8.38;4.53;;;;;;;11.89;100.00;98996.91;5072482;28;20109;-69
2021/09/12 03:17:44;;;;;;;4.53;3.38;;;;;;;11.89;100.00;99008.59;5073082;28;20024;-69
2021/09/12 03:20:10;;;;;;;5.57;3.92;;;;;;;11.92;100.00;99005.50;5073002;28;20494;-69
2021/09/12 03:22:35;;;;;;;7.88;4.63;;;;;;;12.17;100.00;99004.88;5071714;28;20051;-70
2021/09/12 03:25:02;;;;;;;10.75;4.97;;;;;;;12.24;100.00;99008.44;5069701;28;20064;-69
2021/09/12 03:27:28;;;;;;;8.25;5.25;;;;;;;12.27;100.00;98994.44;5072097;28;20025;-69
2021/09/12 03:29:53;;;;;;;28.95;6.30;;;;;;;12.30;100.00;99007.56;5070206;28;20153;-69
2021/09/12 03:32:18;;;;;;;11.77;5.55;;;;;;;12.35;100.00;99004.25;5071846;28;20020;-70
2021/09/12 03:34:44;;;;;;;22.10;6.28;;;;;;;12.29;100.00;99005.91;5071539;28;20048;-69
2021/09/12 03:37:09;;;;;;;11.55;5.45;;;;;;;12.37;100.00;98997.56;5072066;28;20032;-69
2021/09/12 03:39:34;;;;;;;8.25;5.70;;;;;;;12.37;100.00;99002.16;5072556;28;20021;-70
2021/09/12 03:41:59;;;;;;;7.95;5.18;;;;;;;12.38;100.00;99001.94;5070385;28;20032;-69
2021/09/12 03:44:25;;;;;;;10.10;5.95;;;;;;;12.47;100.00;98997.97;5071811;28;20016;-69
2021/09/12 03:46:50;;;;;;;10.15;4.80;;;;;;;12.41;100.00;98998.78;5071634;28;20445;-69
2021/09/12 03:49:15;;;;;;;11.60;5.10;;;;;;;12.44;100.00;99006.53;5072488;28;20081;-69
2021/09/12 03:51:41;;;;;;;10.57;5.43;;;;;;;12.44;100.00;98994.81;5070959;28;20497;-69
2021/09/12 03:54:06;;;;;;;19.77;6.93;;;;;;;12.45;100.00;98999.22;5071118;28;20020;-69
2021/09/12 03:56:31;;;;;;;23.60;5.68;;;;;;;12.49;100.00;98995.84;5071501;28;20051;-70
2021/09/12 03:58:57;;;;;;;15.18;6.05;;;;;;;12.47;100.00;98991.69;5071382;28;20028;-70
2021/09/12 04:01:22;;;;;;;8.43;5.47;;;;;;;12.54;100.00;98997.13;5069542;28;20106;-70
2021/09/12 04:03:47;;;;;;;12.52;4.65;;;;;;;12.65;100.00;98993.75;5071363;28;20390;-70
2021/09/12 04:06:13;;;;;;;9.77;4.18;;;;;;;12.68;100.00;99005.03;5072359;28;20031;-69
2021/09/12 04:08:38;;;;;;;25.50;4.85;;;;;;;12.53;100.00;98988.16;5075877;28;20027;-69
2021/09/12 04:11:04;;;;;;;17.42;4.97;;;;;;;12.54;100.00;98994.41;5077880;28;20029;-69
2021/09/12 04:13:29;;;;;;;9.23;5.90;;;;;;;12.62;100.00;99008.56;5075855;28;20034;-69
2021/09/12 04:15:54;;;;;;;10.90;5.60;;;;;;;12.71;100.00;99003.78;5057584;28;20036;-69
2021/09/12 04:18:20;;;;;;;7.95;5.70;;;;;;;12.67;100.00;98997.91;5073383;28;20031;-69
2021/09/12 04:20:45;;;;;;;12.77;5.25;;;;;;;12.64;100.00;99005.66;5072468;28;20029;-70
2021/09/12 04:23:10;;;;;;;8.23;4.95;;;;;;;12.63;100.00;98999.41;5075278;28;20036;-69
2021/09/12 04:25:36;;;;;;;13.32;5.53;;;;;;;12.62;100.00;99000.44;5071703;28;20047;-69
2021/09/12 04:28:01;;;;;;;15.90;5.50;;;;;;;12.62;100.00;98994.19;5074357;28;20035;-70
2021/09/12 04:30:26;;;;;;;10.00;5.80;;;;;;;12.58;100.00;99011.94;5075430;28;20035;-69
2021/09/12 04:32:52;;;;;;;7.05;5.30;;;;;;;12.58;100.00;99009.22;5075607;28;20024;-69
2021/09/12 04:35:17;;;;;;;16.98;5.80;;;;;;;12.54;100.00;99000.66;5074105;28;20401;-70
2021/09/12 04:37:42;;;;;;;10.75;4.95;;;;;;;12.50;100.00;99002.97;5075114;28;20028;-70
2021/09/12 04:40:09;;;;;;;20.40;5.43;;;;;;;12.53;100.00;99000.88;5075678;28;20104;-69
2021/09/12 04:42:34;;;;;;;13.35;5.68;;;;;;;12.55;100.00;99009.63;5074617;28;20520;-70
2021/09/12 04:45:00;;;;;;;14.00;5.85;;;;;;;12.47;100.00;99007.97;5088639;28;20032;-69
2021/09/12 04:47:26;;;;;;;12.68;5.15;;;;;;;12.46;100.00;99011.75;5090509;28;20032;-69
2021/09/12 04:49:51;;;;;;;6.95;5.22;;;;;;;12.48;100.00;99015.91;5092595;28;20078;-70
2021/09/12 04:52:16;;;;;;;15.35;4.70;;;;;;;12.47;100.00;99010.69;5092024;28;20020;-69
2021/09/12 04:54:42;;;;;;;13.23;5.38;;;;;;;12.49;100.00;99014.84;5091812;28;20054;-70
2021/09/12 04:57:07;;;;;;;19.95;5.47;;;;;;;12.56;100.00;99008.59;5092184;28;20027;-69
2021/09/12 04:59:33;;;;;;;10.32;5.72;;;;;;;12.62;100.00;99015.88;5091719;28;20047;-69
2021/09/12 05:01:59;;;;;;;10.20;6.13;;;;;;;12.55;100.00;99009.63;5074256;28;20074;-69
2021/09/12 05:04:24;;;;;;;20.33;6.28;;;;;;;12.54;100.00;99018.81;5090777;28;20020;-69
2021/09/12 05:06:49;;;;;;;9.43;5.65;;;;;;;12.55;100.00;99015.06;5090501;28;20036;-70
2021/09/12 05:09:14;;;;;;;13.40;6.05;;;;;;;12.45;100.00;98991.91;5091299;28;20021;-69
2021/09/12 05:11:40;;;;;;;11.68;5.75;;;;;;;12.62;100.00;99014.00;5091316;28;20021;-69
2021/09/12 05:14:05;;;;;;;12.35;6.70;;;;;;;12.65;100.00;99020.91;5090800;28;20039;-69
2021/09/12 05:16:30;;;;;;;14.85;5.95;;;;;;;12.60;100.00;99002.56;5091010;28;20024;-69
2021/09/12 05:18:56;;;;;;;16.25;6.22;;;;;;;12.73;100.00;99017.94;5089776;28;20020;-70
2021/09/12 05:21:21;;;;;;;12.02;5.70;;;;;;;12.69;100.00;99003.97;5068415;28;20044;-70
2021/09/12 05:23:47;;;;;;;13.00;6.28;;;;;;;12.65;100.00;99007.31;5074581;28;20029;-70
2021/09/12 05:26:12;;;;;;;8.98;5.35;;;;;;;12.77;100.00;99015.66;5074186;28;20161;-69
2021/09/12 05:28:38;;;;;;;13.23;5.57;;;;;;;12.77;100.00;99021.91;5072811;28;20478;-70
2021/09/12 05:31:03;;;;;;;19.38;5.88;;;;;;;12.72;100.00;99017.13;5067406;28;20021;-69
2021/09/12 05:33:30;;;;;;;7.10;5.50;;;;;;;12.92;100.00;99016.25;5071802;28;20036;-71
2021/09/12 05:35:58;;;;;;;16.30;5.72;;;;;;;12.97;100.00;99027.31;5050874;28;20029;-72
2021/09/12 05:38:24;;;;;;;8.10;4.90;;;;;;;13.11;100.00;99025.38;5069817;28;20020;-70
2021/09/12 05:40:49;;;;;;;17.17;5.65;;;;;;;13.17;100.00;99032.66;5066947;28;20036;-68
2021/09/12 05:43:14;;;;;;;14.70;6.28;;;;;;;13.24;100.00;99030.75;5067618;28;20568;-71
2021/09/12 05:45:40;;;;;;;9.57;5.25;;;;;;;13.37;100.00;99024.47;5074615;28;20386;-73
2021/09/12 05:48:06;;;;;;;13.35;5.07;;;;;;;13.56;100.00;99028.13;5073560;28;20066;-71
2021/09/12 05:50:31;;;;;;;7.90;5.07;;;;;;;13.79;100.00;99027.59;5069776;28;20116;-73
2021/09/12 05:52:56;;;;;;;16.85;5.78;;;;;;;14.14;100.00;99036.13;5074012;28;20028;-72
2021/09/12 05:55:22;;;;;;;8.65;4.68;;;;;;;14.28;100.00;99030.59;5075366;28;20366;-71
2021/09/12 05:57:47;;;;;;;7.50;4.97;;;;;;;14.57;100.00;99029.97;5055807;28;20554;-72
2021/09/12 06:00:13;;;;;;;7.63;5.22;;;;;;;14.87;96.79;99032.78;5057728;28;20025;-71
2021/09/12 06:02:38;;;;;;;9.68;4.82;;;;;;;14.95;94.88;99028.13;5071130;28;20025;-72
2021/09/12 06:05:04;;;;;;;9.82;5.07;;;;;;;14.89;93.79;99025.22;5089726;22;20060;-72
2021/09/12 06:07:30;;;;;;;6.57;4.70;;;;;;;14.75;94.00;99025.59;5062742;28;20025;-73
2021/09/12 06:09:56;;;;;;;14.30;4.85;;;;;;;14.78;94.13;99017.81;5036751;28;20013;-73
2021/09/12 06:12:23;;;;;;;5.75;4.22;;;;;;;14.79;93.68;99008.56;5053309;28;20028;-73
2021/09/12 06:14:48;;;;;;;10.85;5.28;;;;;;;14.84;93.57;99026.97;5069512;28;20449;-72
2021/09/12 06:17:13;;;;;;;7.43;5.05;;;;;;;14.85;92.63;99004.09;5077091;28;20024;-73
2021/09/12 06:19:39;;;;;;;7.13;5.07;;;;;;;14.91;93.02;99005.94;5094301;28;20504;-72
2021/09/12 06:22:05;;;;;;;6.18;4.85;;;;;;;15.10;90.71;99018.50;5072442;28;20032;-73
2021/09/12 06:24:32;;;;;;;10.68;5.15;;;;;;;15.25;90.44;99009.13;5054870;28;20036;-73
2021/09/12 06:26:57;;;;;;;6.80;5.07;;;;;;;15.70;88.21;99001.41;5057366;28;20035;-75
2021/09/12 06:29:22;;;;;;;9.52;4.93;;;;;;;16.63;83.23;99024.47;5050043;28;20020;-75
2021/09/12 06:31:49;;;;;;;7.15;4.88;;;;;;;17.35;80.71;99025.25;5042561;28;20513;-76
2021/09/12 06:34:14;;;;;;;8.77;4.65;;;;;;;17.74;76.54;98994.31;5050875;28;20115;-75
2021/09/12 06:36:39;;;;;;;4.95;3.90;;;;;;;19.14;72.47;99003.66;5076995;28;20055;-75
2021/09/12 06:39:05;;;;;;;21.13;5.10;;;;;;;18.66;71.22;98995.03;5056699;28;20032;-75
2021/09/12 06:41:30;;;;;;;7.93;4.60;;;;;;;18.94;71.84;98993.25;5074270;28;20054;-75
2021/09/12 06:43:56;;;;;;;5.55;4.20;;;;;;;19.05;69.91;99006.84;5056738;28;20036;-75
2021/09/12 06:46:21;;;;;;;8.73;4.38;;;;;;;18.96;72.69;99026.72;5072820;28;20029;-74
2021/09/12 06:48:46;;;;;;;9.50;4.97;;;;;;;18.54;73.09;99017.03;5073385;28;20020;-75
2021/09/12 06:51:13;;;;;;;6.55;4.68;;;;;;;18.49;74.50;99027.91;5054836;28;20027;-75
2021/09/12 06:53:38;;;;;;;6.45;4.63;;;;;;;18.28;76.17;99020.44;5056406;28;20485;-76
2021/09/12 06:56:04;;;;;;;5.50;4.18;;;;;;;18.24;77.28;99035.72;5047034;28;20035;-73
2021/09/12 06:58:31;;;;;;;8.75;4.25;;;;;;;17.88;78.18;99032.34;5074017;28;20024;-72
2021/09/12 07:00:57;;;;;;;5.75;4.80;;;;;;;17.66;80.26;99040.38;5074748;28;20030;-71
2021/09/12 07:03:23;;;;;;;6.97;5.50;;;;;;;17.33;82.49;99038.34;5073617;28;20451;-69
2021/09/12 07:05:48;;;;;;;5.50;4.38;;;;;;;17.50;82.66;99031.03;5078066;28;20107;-72
2021/09/12 07:08:13;;;;;;;4.47;3.65;;;;;;;17.82;81.79;99027.88;5067224;28;20478;-70
2021/09/12 07:10:39;;;;;;;5.90;4.28;;;;;;;18.14;80.61;99037.19;5072242;28;20512;-70
2021/09/12 07:13:04;;;;;;;5.85;4.10;;;;;;;18.50;76.30;99034.25;5071097;28;20470;-70
2021/09/12 07:15:30;;;;;;;5.45;4.00;;;;;;;18.85;75.00;99019.44;5072127;28;20478;-70
2021/09/12 07:17:55;;;;;;;6.47;3.85;;;;;;;19.14;73.91;99037.41;5071081;28;20021;-70
2021/09/12 07:20:20;;;;;;;4.85;3.28;;;;;;;19.24;73.82;99042.22;5074134;28;20470;-70
2021/09/12 07:22:47;;;;;;;4.82;3.60;;;;;;;18.95;73.15;99047.03;5065624;28;20027;-70
2021/09/12 07:25:13;;;;;;;4.60;4.13;;;;;;;18.84;73.61;99043.31;5049367;28;20048;-71
2021/09/12 07:27:39;;;;;;;5.80;3.80;;;;;;;18.98;74.11;99041.84;5050510;28;20066;-70
2021/09/12 07:30:05;;;;;;;4.45;3.42;;;;;;;19.20;73.79;99052.00;5062854;28;20020;-70
2021/09/12 07:32:30;;;;;;;4.25;3.25;;;;;;;19.37;72.36;99032.78;5062949;28;20103;-70
2021/09/12 07:34:55;;;;;;;3.83;2.80;;;;;;;19.39;72.12;99058.88;5057607;28;20047;-70
2021/09/12 07:37:21;;;;;;;3.97;3.00;;;;;;;20.49;68.05;99066.13;5059032;28;20411;-71
2021/09/12 07:39:46;;;;;;;3.17;2.63;;;;;;;22.96;59.24;99053.84;5066133;28;20454;-72
2021/09/12 07:42:12;;;;;;;2.95;2.65;;;;;;;25.51;51.77;99055.22;5057153;28;20116;-70
2021/09/12 07:44:37;;;;;;;3.00;2.65;;;;;;;26.87;47.12;99045.19;5059134;28;20493;-71
2021/09/12 07:47:02;;;;;;;2.85;2.45;;;;;;;27.31;45.22;99043.03;5069529;28;20032;-72
2021/09/12 07:49:28;;;;;;;3.50;2.80;;;;;;;24.67;51.24;99053.56;5066608;28;20024;-72
2021/09/12 07:51:53;;;;;;;3.35;2.58;;;;;;;25.46;49.65;99055.28;5071679;28;20158;-73
2021/09/12 07:54:18;;;;;;;3.38;2.80;;;;;;;25.66;48.96;99038.41;5072732;28;20090;-73
2021/09/12 07:56:44;;;;;;;4.93;2.60;;;;;;;26.63;46.52;99052.84;5071078;28;20025;-73
2021/09/12 07:59:09;;;;;;;2.30;2.10;;;;;;;27.89;43.73;99061.84;5053224;28;20093;-72
2021/09/12 08:01:34;;;;;;;3.72;2.53;;;;;;;27.90;42.64;99054.34;5071631;28;20462;-74
2021/09/12 08:04:00;;;;;;;2.72;2.42;;;;;;;29.62;39.28;99055.03;5051788;28;20547;-73
2021/09/12 08:06:25;;;;;;;2.55;2.22;;;;;;;30.51;38.65;99058.47;5071639;28;20055;-76
2021/09/12 08:08:50;;;;;;;4.78;2.47;;;;;;;29.88;38.65;99052.31;5068262;28;20469;-74
2021/09/12 08:11:16;;;;;;;4.15;2.30;;;;;;;31.09;36.95;99056.25;5057115;28;20028;-75
2021/09/12 08:13:43;;;;;;;3.35;2.30;;;;;;;31.42;36.24;99059.28;5063240;28;20031;-73
2021/09/12 08:16:08;;;;;;;3.85;2.20;;;;;;;32.00;33.47;99046.47;5071908;28;20073;-73
2021/09/12 08:18:35;;;;;;;2.17;1.98;;;;;;;31.46;35.05;99051.84;5073069;28;20033;-75
2021/09/12 08:21:00;;;;;;;3.13;2.00;;;;;;;31.04;35.98;99059.22;5075693;28;20036;-74
2021/09/12 08:23:26;;;;;;;2.92;2.63;;;;;;;31.20;35.68;99052.78;5077513;28;20420;-71
2021/09/12 08:25:51;;;;;;;2.08;1.88;;;;;;;31.19;36.13;99053.91;5064997;28;20426;-74
2021/09/12 08:28:17;;;;;;;2.88;2.20;;;;;;;31.55;35.19;99058.25;5075407;28;20063;-75
2021/09/12 08:30:42;;;;;;;2.95;2.20;;;;;;;30.63;37.09;99055.84;5071039;28;20029;-76
2021/09/12 08:33:16;;;;;;;2.80;2.35;;;;;;;29.77;38.50;99057.41;5064749;28;20126;-73
2021/09/12 08:35:42;;;;;;;2.58;2.30;;;;;;;31.74;34.87;99055.00;5076124;28;20029;-74
2021/09/12 08:38:08;;;;;;;2.40;2.20;;;;;;;30.61;36.91;99062.91;5048920;28;20528;-74
2021/09/12 08:40:34;;;;;;;3.35;2.42;;;;;;;31.28;36.05;99061.44;5071169;28;20028;-75
2021/09/12 08:42:59;;;;;;;2.83;2.15;;;;;;;31.69;36.30;99057.19;5077920;28;20028;-74
2021/09/12 08:45:25;;;;;;;2.97;2.10;;;;;;;32.12;33.67;99051.31;5075988;28;20054;-73
2021/09/12 08:47:51;;;;;;;2.65;2.05;;;;;;;31.96;34.83;99059.50;5070914;28;20385;-73
2021/09/12 08:50:16;;;;;;;2.22;2.03;;;;;;;31.77;34.68;99059.09;5069187;28;20107;-73
2021/09/12 08:52:43;;;;;;;3.00;2.55;;;;;;;31.54;35.15;99059.38;5069434;28;20116;-73
2021/09/12 08:55:09;;;;;;;2.83;2.30;;;;;;;31.82;34.57;99061.69;5043076;28;20036;-73
2021/09/12 08:57:34;;;;;;;3.00;2.30;;;;;;;31.55;35.38;99055.44;5077541;28;20063;-77
2021/09/12 09:00:00;;;;;;;5.93;2.28;;;;;;;30.88;35.92;99068.13;5076549;28;20455;-75
2021/09/12 09:02:27;;;;;;;5.07;2.05;;;;;;;31.42;35.38;99064.88;5071602;28;20052;-74
2021/09/12 09:05:04;;;;;;;2.20;2.00;;;;;;;31.56;35.03;99053.47;5068137;28;20040;-75
2021/09/12 09:07:31;;;;;;;2.85;2.30;;;;;;;30.58;36.38;99056.81;5055545;28;20038;-75
2021/09/12 09:09:58;;;;;;;3.50;2.25;;;;;;;30.94;35.92;99049.22;5066390;28;20020;-75
2021/09/12 09:12:30;;;;;;;3.50;2.65;;;;;;;30.80;36.41;99055.78;5064871;28;20505;-74
2021/09/12 09:15:16;;;;;;;1.92;1.70;;;;;;;32.06;34.55;99047.09;5070033;28;20029;-75
2021/09/12 09:17:49;;;;;;;3.42;2.20;;;;;;;32.23;34.01;99046.97;5067372;28;20644;-74
2021/09/12 09:20:20;;;;;;;3.33;2.22;;;;;;;32.55;33.34;99041.78;5088034;28;20038;-74
2021/09/12 09:22:49;;;;;;;2.90;2.00;;;;;;;34.22;30.71;99039.41;5069457;28;20047;-73
2021/09/12 09:25:20;;;;;;;2.25;1.88;;;;;;;33.10;32.68;99048.16;5079570;28;20028;-70
2021/09/12 09:28:06;;;;;;;4.72;2.38;;;;;;;33.35;31.48;99044.22;5073137;28;20012;-71
2021/09/12 09:31:20;;;;;;;3.75;2.13;;;;;;;33.68;30.98;99043.31;5059054;28;20428;-70
2021/09/12 09:33:41;;;;;;;2.40;2.17;;;;;;;32.43;32.88;99042.50;5067522;28;20040;-70
2021/09/12 09:36:07;;;;;;;2.63;2.33;;;;;;;32.42;33.12;99035.25;5071495;28;20029;-71
2021/09/12 09:38:35;;;;;;;2.60;2.10;;;;;;;34.21;30.38;99035.75;5073054;28;20028;-70
2021/09/12 09:41:08;;;;;;;3.28;2.17;;;;;;;33.33;31.44;99035.34;5073557;28;20078;-70
2021/09/12 09:43:41;;;;;;;4.15;2.40;;;;;;;31.90;33.25;99035.63;5074120;28;20028;-70
2021/09/12 09:46:24;;;;;;;1.92;1.70;;;;;;;33.11;32.21;99030.16;5073967;28;20571;-70
2021/09/12 09:48:49;;;;;;;1.80;1.52;;;;;;;32.89;31.56;99034.19;5072183;28;20024;-67
2021/09/12 09:51:15;;;;;;;2.85;1.80;;;;;;;33.85;30.06;99021.75;5056044;28;20036;-70
2021/09/12 09:53:40;;;;;;;2.38;1.50;;;;;;;33.52;31.54;99020.72;5069728;28;20051;-71
2021/09/12 09:56:06;;;;;;;2.20;1.55;;;;;;;33.43;31.76;99022.00;5071574;28;20105;-70
2021/09/12 09:58:34;;;;;;;2.50;1.58;;;;;;;34.21;30.24;99016.09;5068429;28;20028;-70
2021/09/12 10:01:01;;;;;;;1.52;1.20;;;;;;;33.99;29.82;99020.22;5069035;28;20028;-70
2021/09/12 10:03:26;;;;;;;2.33;1.60;;;;;;;34.73;28.43;99022.00;5070178;28;20397;-71
2021/09/12 10:05:52;;;;;;;3.47;1.20;;;;;;;34.50;28.94;99008.47;5069752;28;20017;-70
2021/09/12 10:08:17;;;;;;;1.30;1.20;;;;;;;34.89;28.25;99022.84;5069342;28;20024;-70
2021/09/12 10:10:44;;;;;;;1.67;1.00;;;;;;;34.23;28.55;99016.56;5068653;28;20031;-71
2021/09/12 10:13:11;;;;;;;1.23;1.10;;;;;;;34.18;29.96;99013.19;5069972;28;20278;-71
2021/09/12 10:15:40;;;;;;;1.60;1.13;;;;;;;35.09;29.05;99012.56;5050035;28;20142;-70
2021/09/12 10:18:07;;;;;;;3.40;1.40;;;;;;;35.54;27.31;99017.69;5069227;28;20059;-71
2021/09/12 10:20:34;;;;;;;2.45;1.38;;;;;;;35.45;28.29;99011.47;5069419;28;20028;-70
2021/09/12 10:23:07;;;;;;;1.35;0.90;;;;;;;35.94;27.18;99011.00;5069106;28;20042;-71
2021/09/12 10:25:41;;;;;;;1.20;0.70;;;;;;;36.24;25.89;98999.22;5051608;28;20108;-71
2021/09/12 10:28:07;;;;;;;1.75;0.70;;;;;;;33.69;28.17;99005.63;5064277;28;20032;-70
2021/09/12 10:30:40;;;;;;;1.30;0.60;;;;;;;33.60;30.44;99000.16;5069158;28;20670;-68
2021/09/12 10:33:05;;;;;;;1.98;0.77;;;;;;;34.86;27.67;98995.44;5069853;28;20520;-70
2021/09/12 10:35:37;;;;;;;0.80;0.50;;;;;;;36.61;24.75;98988.31;5069324;28;20032;-69
2021/09/12 10:38:12;;;;;;;1.63;0.63;;;;;;;35.36;24.70;98996.75;5068757;28;20466;-69
2021/09/12 10:40:47;;;;;;;1.05;0.47;;;;;;;34.96;24.25;98983.66;5060207;28;20113;-69
2021/09/12 10:43:43;;;;;;;0.90;0.45;;;;;;;36.18;22.88;98978.13;5046386;28;20035;-69
2021/09/12 10:46:08;;;;;;;2.83;0.50;;;;;;;36.41;22.70;98990.28;5044814;28;20041;-69
2021/09/12 10:48:33;;;;;;;1.33;0.40;;;;;;;35.80;23.08;98984.53;5069384;28;20028;-69
2021/09/12 10:51:00;;;;;;;0.73;0.53;;;;;;;35.18;23.29;98984.25;5069247;28;20032;-69
2021/09/12 10:53:47;;;;;;;0.68;0.45;;;;;;;35.89;24.38;98985.94;5069367;28;20040;-69
2021/09/12 10:56:15;;;;;;;0.70;0.60;;;;;;;36.63;24.27;98987.94;5068979;28;20055;-68
2021/09/12 10:58:41;;;;;;;0.60;0.50;;;;;;;35.89;24.68;98977.50;5069204;28;20029;-68
2021/09/12 11:01:11;;;;;;;0.98;0.68;;;;;;;36.87;24.13;98983.94;5069081;28;20052;-68
2021/09/12 11:03:36;;;;;;;1.48;0.70;;;;;;;35.49;24.83;98975.75;5067942;28;20096;-68
2021/09/12 11:06:02;;;;;;;0.63;0.60;;;;;;;34.68;26.10;98958.44;5068624;28;20107;-68
2021/09/12 11:08:37;;;;;;;2.60;0.85;;;;;;;35.36;25.82;98976.25;5068782;28;20052;-68
2021/09/12 11:11:04;;;;;;;0.77;0.68;;;;;;;36.32;25.17;98966.38;5068772;28;20032;-68
2021/09/12 11:13:30;;;;;;;0.70;0.50;;;;;;;36.91;24.29;98975.53;5067096;28;20036;-68
2021/09/12 11:16:12;;;;;;;1.33;0.80;;;;;;;37.41;23.96;98959.47;5068267;28;20032;-68
2021/09/12 11:19:00;;;;;;;0.73;0.52;;;;;;;35.67;25.37;98958.50;5067951;28;20025;-68
2021/09/12 11:21:32;;;;;;;1.73;0.57;;;;;;;35.46;26.19;98959.63;5069548;28;20036;-68
2021/09/12 11:24:10;;;;;;;2.92;0.70;;;;;;;36.12;25.75;98959.91;5068648;28;20028;-68